カンクン国際空港の過去48時間の天気

カンクン国際空港 (Cancun International Airport)

現在時刻: 1/25 14:03 CST (1/25 20:03 UTC) 以下の時間は現地時間です。

過去48時間のMETAR気象情報
時間 風向 風速(m/s) 視程 気温(℃) 湿度(%) 気圧(hPa) 天気現象
25 12:45 南東 6 10km以上 29 66 1014
25 11:45 南東 6 10km以上 28 70 1014.9
25 10:50 南南東 7 10km以上 28 74 1015
25 09:49 南東 9 10km以上 28 74 1016
25 08:46 南東 7 10km以上 28 74 1015.1
25 07:40 5 10km以上 26 84 1015
25 06:49 東南東 4 10km以上 26 84 1014
25 05:44 東南東 6 10km以上 25 83 1013.8
25 04:45 東南東 5 10km以上 25 83 1014
25 03:46 東南東 6 10km以上 25 83 1013
25 02:47 東南東 4 10km以上 25 83 1013.8
25 01:44 東南東 4 10km以上 25 83 1015
25 00:44 東南東 4 10km以上 25 83 1015
24 23:44 東南東 4 10km以上 25 83 1015.7
24 22:46 東南東 4 10km以上 25 83 1016
24 21:46 東南東 4 10km以上 25 83 1016
24 20:47 3 10km以上 26 79 1016.7
24 19:43 3 10km以上 26 79 1016
24 18:42 4 10km以上 26 79 1016
24 17:49 6 10km以上 26 74 1015.5
24 16:44 東南東 7 10km以上 27 70 1016
24 15:41 東南東 6 10km以上 27 70 1016
24 14:42 東南東 6 10km以上 27 70 1015.3
24 13:40 東南東 8 10km以上 27 74 1016
24 12:40 6 10km以上 28 66 1016
24 11:42 6 10km以上 28 62 1017.7
24 10:40 6 10km以上 29 58 1018
24 09:40 7 10km以上 28 62 1018
24 08:44 東南東 5 10km以上 27 70 1018
24 07:42 4 10km以上 26 74 1017
24 06:43 3 10km以上 25 74 1017
24 05:47 3 10km以上 24 83 1016.3
24 04:44 4 10km以上 25 74 1016
24 03:41 3 10km以上 25 74 1016
24 02:44 3 10km以上 25 78 1015.8
24 01:42 2 10km以上 23 89 1016
24 00:44 2 10km以上 25 78 1017
23 23:45 3 10km以上 25 78 1017.1
23 22:43 3 10km以上 25 78 1017
23 21:42 3 10km以上 25 78 1017
23 20:48 4 10km以上 25 78 1017.3
23 19:43 3 10km以上 25 78 1017
23 18:42 3 10km以上 26 74 1017
23 17:45 3 10km以上 26 79 1016.1
23 16:43 4 10km以上 27 70 1016
23 15:48 南東 5 10km以上 28 66 1015
23 14:44 南東 3 10km以上 28 66 1015.2
MMUN 251845Z 14012KT 7SM BKN018 29/22 A2993 RMK 8/500 CI
MMUN 251745Z 14012KT 7SM BKN015 28/22 A2996 RMK SLP149 57003 978 8/500 CI
MMUN 251650Z 16013KT 7SM BKN015 28/23 A2998 RMK 8/100 MDT CU CI
MMUN 251549Z 13018KT 7SM BKN015 28/23 A2999 RMK 8/100 MDT CU CI
MMUN 251446Z 13014KT 7SM BKN015 28/23 A2998 RMK SLP151 52014 971 8/100
MMUN 251340Z 10010KT 7SM BKN015 26/23 A2996 RMK 8/100 MDT CU CI
MMUN 251249Z 11007KT 7SM BKN015 26/23 A2994 RMK 8/100 MDT CU CI
MMUN 251144Z 12012KT 7SM SCT015 25/22 A2993 RMK SLP138 54000 975 8/100 CI
MMUN 251045Z 12010KT 7SM SCT015 25/22 A2993 RMK 8/500
MMUN 250946Z 12011KT 7SM FEW015 25/22 A2992 RMK 8/500
MMUN 250847Z 12007KT 7SM SKC 25/22 A2994 RMK SLP138 57019 970 SC
MMUN 250744Z 11008KT 7SM FEW015 25/22 A2996 RMK 8/500
MMUN 250644Z 12008KT 7SM SCT015 25/22 A2998 RMK 8/500
MMUN 250544Z 11007KT 7SM SCT015 25/22 A2999 RMK SLP157 56010 964 8/500
MMUN 250446Z 12007KT 7SM BKN015 25/22 A3001 RMK 8/500
MMUN 250346Z 12007KT 7SM BKN015 25/22 A3001 RMK 8/500
MMUN 250247Z 09006KT 7SM BKN015 26/22 A3002 RMK SLP167 51012 956 8/500
MMUN 250143Z 09006KT 7SM BKN015 26/22 A3001 RMK 8/500
MMUN 250042Z 10008KT 7SM FEW015 26/22 A2999 RMK 8/500 CI
MMUN 242349Z 10012KT 7SM SCT015TCU BKN250 26/21 A2999 RMK SLP155 52002 956 8/208
MMUN 242244Z 11013KT 7SM SCT015TCU BKN250 27/21 A2999 RMK 8/208
MMUN 242141Z 11012KT 7SM SCT015TCU BKN250 27/21 A2999 RMK 8/208 SC
MMUN 242042Z 11012KT 7SM SCT015TCU BKN250 27/21 A2998 RMK SLP153 57024 901 8/208 SC
MMUN 241940Z 12015KT 7SM SCT015TCU SCT250 27/22 A2999 RMK 8/208 SC
MMUN 241840Z 10012KT 7SM SCT015 SCT250 28/21 A3001 RMK 8/508 ISOL TCU
MMUN 241742Z 10012KT 7SM SCT015 SCT250 28/20 A3004 RMK SLP177 57003 903 8/508
MMUN 241640Z 09012KT 7SM SCT015 SCT250 29/20 A3006 RMK 8/508
MMUN 241540Z 10014KT 7SM SCT015 SCT250 28/20 A3006 RMK 8/508
MMUN 241444Z 11010KT 7SM SCT015 SCT250 27/21 A3006 RMK SLP180 52016 903 8/508
MMUN 241342Z 10008KT 7SM SCT015 BKN250 26/21 A3004 RMK 8/508
MMUN 241243Z 09006KT 7SM SCT015 BKN250 25/20 A3002 RMK 8/508
MMUN 241147Z 09006KT 7SM FEW015 SCT250 24/21 A3001 RMK SLP163 52005 904 8/508
MMUN 241044Z 09007KT 7SM FEW015 25/20 A2999 RMK 8/500
MMUN 240941Z 08006KT 7SM FEW015 25/20 A2999 RMK 8/500
MMUN 240844Z 08005KT 7SM SCT015 25/21 A2999 RMK SLP158 57013 906 8/500
MMUN 240742Z 08003KT 7SM SCT015 23/21 A3001 RMK 8/500
MMUN 240644Z 08004KT 7SM FEW015 25/21 A3002 RMK 8/500
MMUN 240545Z 09005KT 7SM FEW015 25/21 A3003 RMK SLP171 57002 913 8/500
MMUN 240443Z 09006KT 7SM FEW015 25/21 A3004 RMK 8/500
MMUN 240342Z 09006KT 7SM FEW015 25/21 A3004 RMK 8/500
MMUN 240248Z 10008KT 7SM SCT015 25/21 A3004 RMK SLP173 52012 911 8/500
MMUN 240143Z 08006KT 7SM SCT015 25/21 A3003 RMK 8/500
MMUN 240042Z 09006KT 7SM SCT015 26/21 A3002 RMK 8/500
MMUN 232345Z 09005KT 7SM BKN015 26/22 A3000 RMK SLP161 52009 909 8/100
MMUN 232243Z 10008KT 7SM BKN015 27/21 A3000 RMK 8/100
MMUN 232148Z 13009KT 7SM SCT015 28/21 A2998 RMK 8/100
MMUN 232044Z 13006KT 7SM SCT015 28/21 A2998 RMK SLP152 57022 907 8/100